createdAt,value
2022-08-05T00:01:29.153Z,6.18
2022-08-05T00:03:57.117Z,8.55
2022-08-05T00:06:32.484Z,10.80
2022-08-05T00:09:00.489Z,8.73
2022-08-05T00:11:34.441Z,11.18
2022-08-05T00:14:12.887Z,8.07
2022-08-05T00:16:52.067Z,7.95
2022-08-05T00:19:19.733Z,5.60
2022-08-05T00:21:49.031Z,5.88
2022-08-05T00:24:19.001Z,5.60
2022-08-05T00:26:52.141Z,6.82
2022-08-05T00:29:22.779Z,7.80
2022-08-05T00:32:11.206Z,6.07
2022-08-05T00:34:56.408Z,8.15
2022-08-05T00:37:35.563Z,12.65
2022-08-05T00:40:14.347Z,5.45
2022-08-05T00:42:49.138Z,8.15
2022-08-05T00:45:16.652Z,7.72
2022-08-05T00:47:57.799Z,8.48
2022-08-05T00:50:35.072Z,5.72
2022-08-05T00:53:02.720Z,4.80
2022-08-05T00:55:33.961Z,6.40
2022-08-05T00:58:11.320Z,12.23
2022-08-05T01:00:38.356Z,9.30
2022-08-05T01:03:07.626Z,7.63
2022-08-05T01:05:35.120Z,8.35
2022-08-05T01:08:41.930Z,10.38
2022-08-05T01:10:55.968Z,9.60
2022-08-05T01:13:58.229Z,6.78
2022-08-05T01:16:41.430Z,7.90
2022-08-05T01:19:46.195Z,9.50
2022-08-05T01:22:29.145Z,9.30
2022-08-05T01:25:24.740Z,8.60
2022-08-05T01:28:31.846Z,10.80
2022-08-05T01:31:11.532Z,9.23
2022-08-05T01:33:53.823Z,8.70
2022-08-05T01:36:28.253Z,9.25
2022-08-05T01:38:56.238Z,15.05
2022-08-05T01:41:25.793Z,17.42
2022-08-05T01:43:53.599Z,8.35
2022-08-05T01:46:43.092Z,11.70
2022-08-05T01:49:23.246Z,14.65
2022-08-05T01:51:56.400Z,8.07
2022-08-05T01:54:47.648Z,11.43
2022-08-05T01:58:11.725Z,13.80
2022-08-05T02:00:18.244Z,10.65
2022-08-05T02:03:24.484Z,11.25
2022-08-05T02:06:01.014Z,10.68
2022-08-05T02:08:31.667Z,12.13
2022-08-05T02:11:12.605Z,16.65
2022-08-05T02:13:54.104Z,13.10
2022-08-05T02:16:24.608Z,12.93
2022-08-05T02:19:07.432Z,11.38
2022-08-05T02:21:42.998Z,12.05
2022-08-05T02:24:18.575Z,10.93
2022-08-05T02:26:54.632Z,10.50
2022-08-05T02:29:58.178Z,13.70
2022-08-05T02:32:11.694Z,12.90
2022-08-05T02:34:54.717Z,10.07
2022-08-05T02:37:23.786Z,12.02
2022-08-05T02:39:53.527Z,10.35
2022-08-05T02:42:27.349Z,9.90
2022-08-05T02:44:57.008Z,12.15
2022-08-05T02:47:25.849Z,7.45
2022-08-05T02:50:18.145Z,12.65
2022-08-05T02:52:46.975Z,10.00
2022-08-05T02:55:14.402Z,12.52
2022-08-05T02:58:09.247Z,11.27
2022-08-05T03:00:35.146Z,9.73
2022-08-05T03:03:10.212Z,12.52
2022-08-05T03:06:55.218Z,12.88
2022-08-05T03:08:29.911Z,17.27
2022-08-05T03:11:45.949Z,11.13
2022-08-05T03:13:51.111Z,11.40
2022-08-05T03:16:19.488Z,8.20
2022-08-05T03:18:47.572Z,5.95
2022-08-05T03:21:15.382Z,8.30
2022-08-05T03:23:43.646Z,12.90
2022-08-05T03:26:31.813Z,10.80
2022-08-05T03:28:59.170Z,12.85
2022-08-05T03:31:57.058Z,10.85
2022-08-05T03:34:15.303Z,9.45
2022-08-05T03:36:41.964Z,11.13
2022-08-05T03:39:13.062Z,14.25
2022-08-05T03:41:47.087Z,11.02
2022-08-05T03:44:19.929Z,12.10
2022-08-05T03:46:46.882Z,13.17
2022-08-05T03:49:15.419Z,10.98
2022-08-05T03:52:48.404Z,12.27
2022-08-05T03:56:10.053Z,7.18
2022-08-05T03:57:52.868Z,11.73
2022-08-05T04:00:28.321Z,12.30
2022-08-05T04:03:02.779Z,9.88
2022-08-05T04:05:34.637Z,15.18
2022-08-05T04:08:30.368Z,14.80
2022-08-05T04:10:55.531Z,15.07
2022-08-05T04:13:22.119Z,11.35
2022-08-05T04:15:52.637Z,14.80
2022-08-05T04:18:29.481Z,15.93
2022-08-05T04:20:57.846Z,11.00
2022-08-05T04:24:06.068Z,10.55
2022-08-05T04:26:17.386Z,11.73
2022-08-05T04:28:51.184Z,11.00
2022-08-05T04:31:19.443Z,9.25
2022-08-05T04:34:18.011Z,10.57
2022-08-05T04:36:45.485Z,14.18
2022-08-05T04:39:13.596Z,12.50
2022-08-05T04:41:40.300Z,14.40
2022-08-05T04:44:09.483Z,9.85
2022-08-05T04:46:37.606Z,11.48
2022-08-05T04:49:05.683Z,9.73
2022-08-05T04:51:39.081Z,7.40
2022-08-05T04:54:05.740Z,15.45
2022-08-05T04:56:37.118Z,9.98
2022-08-05T04:59:17.452Z,22.48
2022-08-05T05:02:08.338Z,9.93
2022-08-05T05:04:47.604Z,11.75
2022-08-05T05:07:15.938Z,11.55
2022-08-05T05:09:44.124Z,9.77
2022-08-05T05:12:12.431Z,10.82
2022-08-05T05:14:49.477Z,9.32
2022-08-05T05:17:23.358Z,10.75
2022-08-05T05:19:54.158Z,9.30
2022-08-05T05:22:24.433Z,9.60
2022-08-05T05:24:56.804Z,13.15
2022-08-05T05:27:41.487Z,9.73
2022-08-05T05:30:15.528Z,10.65
2022-08-05T05:32:56.957Z,6.38
2022-08-05T05:35:34.266Z,10.15
2022-08-05T05:38:05.662Z,7.15
2022-08-05T05:40:38.836Z,13.18
2022-08-05T05:43:10.299Z,11.32
2022-08-05T05:45:36.903Z,9.32
2022-08-05T05:48:16.148Z,8.60
2022-08-05T05:50:44.307Z,9.55
2022-08-05T05:53:21.984Z,9.40
2022-08-05T05:56:00.685Z,9.15
2022-08-05T05:58:31.395Z,11.27
2022-08-05T06:01:12.454Z,12.88
2022-08-05T06:04:01.305Z,6.18
2022-08-05T06:06:28.024Z,11.10
2022-08-05T06:08:59.247Z,7.90
2022-08-05T06:11:26.202Z,8.35
2022-08-05T06:14:00.492Z,9.73
2022-08-05T06:16:32.754Z,15.23
2022-08-05T06:19:08.077Z,10.25
2022-08-05T06:21:37.509Z,9.05
2022-08-05T06:24:14.786Z,11.23
2022-08-05T06:26:45.899Z,10.40
2022-08-05T06:29:42.778Z,6.10
2022-08-05T06:32:21.130Z,11.38
2022-08-05T06:34:53.471Z,12.70
2022-08-05T06:37:55.603Z,6.53
2022-08-05T06:40:27.699Z,7.90
2022-08-05T06:42:57.840Z,7.55
2022-08-05T06:45:44.730Z,11.43
2022-08-05T06:48:54.557Z,9.32
2022-08-05T06:51:00.903Z,11.50
2022-08-05T06:53:28.862Z,9.68
2022-08-05T06:56:00.722Z,10.95
2022-08-05T06:58:35.311Z,16.10
2022-08-05T07:01:06.021Z,14.32
2022-08-05T07:03:35.935Z,11.65
2022-08-05T07:06:05.704Z,9.95
2022-08-05T07:08:47.998Z,10.63
2022-08-05T07:11:22.115Z,14.02
2022-08-05T07:14:15.460Z,10.52
2022-08-05T07:17:56.503Z,5.60
2022-08-05T07:22:28.169Z,4.80
2022-08-05T07:24:56.525Z,9.77
2022-08-05T07:27:23.213Z,8.75
2022-08-05T07:30:24.084Z,8.07
2022-08-05T07:32:45.408Z,6.97
2022-08-05T07:36:05.299Z,10.25
2022-08-05T07:38:06.440Z,8.52
2022-08-05T07:40:39.228Z,7.20
2022-08-05T07:43:20.292Z,10.13
2022-08-05T07:45:57.460Z,7.65
2022-08-05T07:49:00.611Z,7.63
2022-08-05T07:51:23.409Z,12.93
2022-08-05T07:54:02.341Z,5.78
2022-08-05T07:57:00.063Z,6.97
2022-08-05T07:59:15.521Z,4.25
2022-08-05T08:01:52.133Z,6.68
2022-08-05T08:04:37.911Z,4.60
2022-08-05T08:07:07.410Z,8.38
2022-08-05T08:09:34.987Z,5.13
2022-08-05T08:12:14.365Z,4.28
2022-08-05T08:14:51.345Z,6.40
2022-08-05T08:17:18.516Z,5.30
2022-08-05T08:20:20.960Z,7.07
2022-08-05T08:22:37.633Z,4.80
2022-08-05T08:25:16.149Z,6.80
2022-08-05T08:27:47.447Z,6.38
2022-08-05T08:30:30.092Z,8.32
2022-08-05T08:33:13.797Z,5.35
2022-08-05T08:35:53.896Z,5.53
2022-08-05T08:38:35.394Z,14.23
2022-08-05T08:41:08.326Z,5.57
2022-08-05T08:45:23.067Z,6.18
2022-08-05T08:46:24.346Z,16.77
2022-08-05T08:49:07.776Z,10.38
2022-08-05T08:52:03.695Z,7.57
2022-08-05T08:54:30.628Z,10.60
2022-08-05T08:56:59.214Z,5.88
2022-08-05T08:59:27.518Z,7.38
2022-08-05T09:01:57.431Z,5.38
2022-08-05T09:04:30.327Z,5.57
2022-08-05T09:06:57.487Z,5.82
2022-08-05T09:09:24.943Z,4.68
2022-08-05T09:11:55.366Z,7.15
2022-08-05T09:14:58.880Z,9.80
2022-08-05T09:17:41.021Z,4.30
2022-08-05T09:20:05.054Z,4.25
2022-08-05T09:23:19.242Z,10.98
2022-08-05T09:26:02.659Z,4.93
2022-08-05T09:28:33.855Z,4.60
2022-08-05T09:31:22.200Z,4.75
2022-08-05T09:34:01.534Z,1.55
2022-08-05T09:36:56.447Z,5.53
2022-08-05T09:39:41.148Z,5.65
2022-08-05T09:42:20.131Z,1.90
2022-08-05T09:44:56.537Z,3.85
2022-08-05T09:47:26.103Z,4.03
2022-08-05T09:50:02.179Z,3.00
2022-08-05T09:52:31.085Z,2.95
2022-08-05T09:55:56.452Z,2.55
2022-08-05T09:57:58.662Z,1.27
2022-08-05T10:00:27.786Z,1.05
2022-08-05T10:02:58.409Z,3.08
2022-08-05T10:05:28.769Z,8.73
2022-08-05T10:08:35.229Z,3.50
2022-08-05T10:10:50.321Z,1.50
2022-08-05T10:13:47.586Z,6.68
2022-08-05T10:16:41.654Z,3.30
2022-08-05T10:19:23.546Z,2.38
2022-08-05T10:21:59.038Z,2.72
2022-08-05T10:24:27.232Z,2.28
2022-08-05T10:26:56.643Z,1.35
2022-08-05T10:30:06.468Z,5.38
2022-08-05T10:32:55.080Z,8.43
2022-08-05T10:35:04.491Z,0.47
2022-08-05T10:37:40.211Z,2.63
2022-08-05T10:40:33.209Z,1.17
2022-08-05T10:43:42.472Z,2.10
2022-08-05T10:46:14.696Z,2.15
2022-08-05T10:48:56.917Z,4.53
2022-08-05T10:51:28.595Z,3.35
2022-08-05T10:53:56.197Z,4.15
2022-08-05T10:56:27.893Z,3.67
2022-08-05T10:58:55.656Z,2.63
2022-08-05T11:01:55.082Z,2.67
2022-08-05T11:04:26.378Z,2.20
2022-08-05T11:08:03.201Z,2.13
2022-08-05T11:10:37.379Z,1.88
2022-08-05T11:13:06.508Z,4.03
2022-08-05T11:16:00.155Z,1.55
2022-08-05T11:18:34.253Z,1.52
2022-08-05T11:21:06.136Z,2.47
2022-08-05T11:24:05.259Z,1.45
2022-08-05T11:26:29.201Z,5.57
2022-08-05T11:29:11.917Z,3.85
2022-08-05T11:31:51.917Z,4.72
2022-08-05T11:34:51.547Z,7.00
2022-08-05T11:38:30.407Z,2.60
2022-08-05T11:41:12.747Z,4.75
2022-08-05T11:44:07.050Z,3.22
2022-08-05T11:46:37.509Z,3.80
2022-08-05T11:49:06.294Z,9.40
2022-08-05T11:51:43.793Z,1.95
2022-08-05T11:54:33.419Z,5.97
2022-08-05T11:57:02.282Z,3.08
2022-08-05T11:59:49.329Z,6.53
2022-08-05T12:02:24.242Z,6.60
2022-08-05T12:05:00.785Z,5.75
2022-08-05T12:08:03.637Z,2.28
2022-08-05T12:10:24.944Z,13.25
2022-08-05T12:13:14.630Z,6.03
2022-08-05T12:15:49.666Z,2.97
2022-08-05T12:18:32.734Z,2.92
2022-08-05T12:21:11.202Z,8.80
2022-08-05T12:24:04.587Z,5.32
2022-08-05T12:26:33.653Z,3.30
2022-08-05T12:29:01.549Z,1.20
2022-08-05T12:31:46.169Z,2.65
2022-08-05T12:34:21.274Z,5.97
2022-08-05T12:40:57.108Z,7.03
2022-08-05T12:43:23.741Z,1.65
2022-08-05T12:45:54.321Z,1.17
2022-08-05T12:48:27.398Z,4.18
2022-08-05T12:52:09.884Z,0.77
2022-08-05T12:54:04.015Z,6.85
2022-08-05T12:56:35.208Z,0.82
2022-08-05T12:59:46.466Z,2.90
2022-08-05T13:02:12.271Z,1.40
2022-08-05T13:04:54.392Z,1.85
2022-08-05T13:07:56.139Z,3.53
2022-08-05T13:10:15.115Z,6.03
2022-08-05T13:12:51.039Z,4.03
2022-08-05T13:15:35.833Z,5.68
2022-08-05T13:18:08.799Z,3.60
2022-08-05T13:20:40.437Z,3.75
2022-08-05T13:23:07.643Z,2.55
2022-08-05T13:25:52.437Z,1.77
2022-08-05T13:28:24.341Z,2.15
2022-08-05T13:30:53.272Z,2.72
2022-08-05T13:34:24.262Z,1.55
2022-08-05T13:36:09.513Z,1.60
2022-08-05T13:38:42.064Z,5.57
2022-08-05T13:41:12.335Z,2.38
2022-08-05T13:43:44.366Z,3.38
2022-08-05T13:46:44.353Z,1.67
2022-08-05T13:49:10.379Z,3.53
2022-08-05T13:51:40.860Z,2.63
2022-08-05T13:54:13.491Z,1.52
2022-08-05T13:56:45.487Z,1.90
2022-08-05T13:59:24.142Z,0.75
2022-08-05T14:01:57.573Z,3.50
2022-08-05T14:04:49.954Z,0.63
2022-08-05T14:07:25.689Z,1.50
2022-08-05T14:10:28.814Z,3.13
2022-08-05T14:12:57.605Z,3.85
2022-08-05T14:16:04.769Z,5.22
2022-08-05T14:18:15.283Z,3.20
2022-08-05T14:20:47.657Z,2.28
2022-08-05T14:23:19.188Z,3.22
2022-08-05T14:25:57.921Z,1.45
2022-08-05T14:28:29.318Z,3.10
2022-08-05T14:30:57.312Z,1.85
2022-08-05T14:33:24.139Z,2.38
2022-08-05T14:35:52.038Z,2.78
2022-08-05T14:38:33.298Z,2.60
2022-08-05T14:41:07.466Z,1.13
2022-08-05T14:44:00.095Z,1.42
2022-08-05T14:46:28.683Z,1.10
2022-08-05T14:48:57.351Z,4.72
2022-08-05T14:51:24.440Z,6.57
2022-08-05T14:54:26.870Z,1.33
2022-08-05T14:56:44.276Z,5.10
2022-08-05T14:59:13.260Z,7.55
2022-08-05T15:01:48.239Z,1.25
2022-08-05T15:04:16.603Z,2.80
2022-08-05T15:06:49.066Z,2.10
2022-08-05T15:11:51.525Z,2.33
2022-08-05T15:14:34.264Z,1.90
2022-08-05T15:17:44.660Z,3.25
2022-08-05T15:19:52.361Z,1.75
2022-08-05T15:22:21.674Z,3.13
2022-08-05T15:24:54.244Z,5.17
2022-08-05T15:27:20.780Z,3.65
2022-08-05T15:29:47.306Z,3.15
2022-08-05T15:32:16.454Z,1.48
2022-08-05T15:34:43.270Z,1.45
2022-08-05T15:37:14.677Z,5.25
2022-08-05T15:42:54.050Z,1.95
2022-08-05T15:45:16.701Z,2.47
2022-08-05T15:47:46.837Z,4.43
2022-08-05T15:50:15.921Z,2.88
2022-08-05T15:52:53.693Z,1.88
2022-08-05T15:55:25.130Z,2.28
2022-08-05T15:58:16.762Z,1.15
2022-08-05T16:01:03.476Z,3.35
2022-08-05T16:03:32.769Z,2.10
2022-08-05T16:06:00.818Z,2.88
2022-08-05T16:08:30.381Z,2.80
2022-08-05T16:10:58.124Z,2.55
2022-08-05T16:13:34.259Z,2.72
2022-08-05T16:16:03.248Z,4.43
2022-08-05T16:18:33.299Z,6.32
2022-08-05T16:21:04.322Z,2.83
2022-08-05T16:23:53.359Z,2.15
2022-08-05T16:26:26.293Z,1.50
2022-08-05T16:28:54.538Z,4.43
2022-08-05T16:31:21.708Z,4.57
2022-08-05T16:33:52.055Z,4.53
2022-08-05T16:36:24.032Z,4.18
2022-08-05T16:38:54.738Z,5.43
2022-08-05T16:42:15.339Z,4.40
2022-08-05T16:44:14.446Z,7.55
2022-08-05T16:46:55.852Z,7.95
2022-08-05T16:49:23.049Z,6.55
2022-08-05T16:51:51.091Z,2.05
2022-08-05T16:54:28.630Z,4.10
2022-08-05T16:56:58.719Z,3.55
2022-08-05T17:00:02.735Z,4.10
2022-08-05T17:02:22.860Z,5.10
2022-08-05T17:04:50.132Z,3.85
2022-08-05T17:07:16.629Z,4.72
2022-08-05T17:10:04.390Z,4.32
2022-08-05T17:12:51.120Z,3.42
2022-08-05T17:15:19.539Z,2.10
2022-08-05T17:17:54.500Z,8.65
2022-08-05T17:20:25.226Z,4.60
2022-08-05T17:22:55.331Z,3.75
2022-08-05T17:25:39.469Z,2.60
2022-08-05T17:28:07.774Z,5.65
2022-08-05T17:30:42.382Z,7.20
2022-08-05T17:36:08.888Z,6.78
2022-08-05T17:38:22.372Z,6.28
2022-08-05T17:40:48.938Z,3.08
2022-08-05T17:43:16.169Z,2.65
2022-08-05T17:45:42.891Z,7.15
2022-08-05T17:48:09.520Z,4.18
2022-08-05T17:50:37.776Z,4.75
2022-08-05T17:53:05.242Z,3.85
2022-08-05T17:55:37.931Z,3.38
2022-08-05T17:58:13.225Z,7.63
2022-08-05T18:00:47.556Z,6.53
2022-08-05T18:06:12.007Z,4.30
2022-08-05T18:08:44.638Z,10.93
2022-08-05T18:11:23.854Z,7.32
2022-08-05T18:13:56.770Z,6.05
2022-08-05T18:16:26.488Z,4.93
2022-08-05T18:18:53.296Z,4.10
2022-08-05T18:21:22.775Z,7.80
2022-08-05T18:23:53.846Z,6.57
2022-08-05T18:26:27.752Z,3.42
2022-08-05T18:28:57.393Z,6.95
2022-08-05T18:31:33.913Z,4.68
2022-08-05T18:34:03.413Z,8.00
2022-08-05T18:36:32.705Z,8.73
2022-08-05T18:39:00.327Z,8.27
2022-08-05T18:41:56.359Z,4.60
2022-08-05T18:44:33.057Z,4.28
2022-08-05T18:47:04.093Z,4.68
2022-08-05T18:49:57.967Z,5.95
2022-08-05T18:52:36.970Z,6.30
2022-08-05T18:55:10.279Z,5.20
2022-08-05T18:57:43.670Z,6.93
2022-08-05T19:00:20.227Z,10.35
2022-08-05T19:02:50.199Z,6.93
2022-08-05T19:06:13.576Z,7.25
2022-08-05T19:08:15.419Z,7.60
2022-08-05T19:11:58.654Z,13.88
2022-08-05T19:17:10.861Z,7.22
2022-08-05T19:19:48.722Z,5.72
2022-08-05T19:22:18.852Z,8.50
2022-08-05T19:24:54.450Z,6.53
2022-08-05T19:30:06.619Z,5.10
2022-08-05T19:32:35.904Z,10.55
2022-08-05T19:35:05.948Z,11.50
2022-08-05T19:37:47.176Z,7.18
2022-08-05T19:40:24.330Z,8.45
2022-08-05T19:43:05.004Z,8.13
2022-08-05T19:45:36.272Z,6.68
2022-08-05T19:48:06.837Z,8.90
2022-08-05T19:50:41.173Z,9.93
2022-08-05T19:53:09.367Z,5.95
2022-08-05T19:56:14.276Z,7.10
2022-08-05T19:58:29.681Z,6.22
2022-08-05T20:00:56.764Z,7.47
2022-08-05T20:03:25.344Z,7.15
2022-08-05T20:05:56.597Z,7.90
2022-08-05T20:08:24.818Z,11.27
2022-08-05T20:10:51.861Z,8.32
2022-08-05T20:13:30.365Z,4.10
2022-08-05T20:16:06.621Z,7.30
2022-08-05T20:18:35.955Z,7.95
2022-08-05T20:21:05.174Z,5.03
2022-08-05T20:23:39.585Z,7.70
2022-08-05T20:28:51.462Z,8.77
2022-08-05T20:31:21.583Z,6.50
2022-08-05T20:33:55.357Z,5.70
2022-08-05T20:36:22.553Z,7.63
2022-08-05T20:38:53.385Z,10.05
2022-08-05T20:41:27.152Z,12.32
2022-08-05T20:44:17.843Z,10.50
2022-08-05T20:46:46.931Z,10.93
2022-08-05T20:49:13.984Z,10.80
2022-08-05T20:51:40.707Z,8.73
2022-08-05T20:54:13.854Z,6.70
2022-08-05T20:56:42.510Z,6.95
2022-08-05T20:59:14.153Z,8.13
2022-08-05T21:01:46.648Z,5.95
2022-08-05T21:04:13.911Z,7.60
2022-08-05T21:06:45.258Z,9.52
2022-08-05T21:09:14.773Z,9.68
2022-08-05T21:12:10.962Z,7.63
2022-08-05T21:14:34.612Z,3.88
2022-08-05T21:17:05.756Z,5.80
2022-08-05T21:19:46.955Z,5.53
2022-08-05T21:22:14.602Z,5.40
2022-08-05T21:24:41.162Z,5.00
2022-08-05T21:27:09.258Z,6.63
2022-08-05T21:29:40.719Z,7.18
2022-08-05T21:32:07.696Z,8.18
2022-08-05T21:34:35.531Z,7.28
2022-08-05T21:37:02.572Z,6.20
2022-08-05T21:39:29.525Z,9.10
2022-08-05T21:42:01.610Z,6.78
2022-08-05T21:44:30.228Z,6.80
2022-08-05T21:46:58.447Z,6.85
2022-08-05T21:50:00.227Z,6.65
2022-08-05T21:52:16.638Z,9.63
2022-08-05T21:54:55.041Z,6.35
2022-08-05T21:57:31.254Z,9.23
2022-08-05T22:00:05.747Z,5.97
2022-08-05T22:02:33.870Z,5.93
2022-08-05T22:05:00.502Z,8.60
2022-08-05T22:07:40.067Z,10.15
2022-08-05T22:10:16.138Z,9.40
2022-08-05T22:12:44.734Z,14.27
2022-08-05T22:15:17.151Z,12.35
2022-08-05T22:18:03.971Z,11.68
2022-08-05T22:20:30.777Z,9.85
2022-08-05T22:23:21.646Z,11.27
2022-08-05T22:26:11.836Z,8.68
2022-08-05T22:28:41.684Z,8.67
2022-08-05T22:31:17.902Z,8.98
2022-08-05T22:33:57.913Z,7.88
2022-08-05T22:36:27.969Z,6.88
2022-08-05T22:38:56.002Z,8.55
2022-08-05T22:42:05.711Z,8.05
2022-08-05T22:44:12.101Z,9.10
2022-08-05T22:46:40.725Z,11.48
2022-08-05T22:49:23.030Z,9.50
2022-08-05T22:52:04.701Z,10.10
2022-08-05T22:54:35.020Z,4.80
2022-08-05T22:57:02.720Z,10.88
2022-08-05T22:59:48.365Z,5.47
2022-08-05T23:02:18.096Z,9.05
2022-08-05T23:04:51.648Z,6.88
2022-08-05T23:07:22.115Z,7.32
2022-08-05T23:09:58.428Z,5.95
2022-08-05T23:12:32.439Z,10.10
2022-08-05T23:15:03.591Z,8.35
2022-08-05T23:17:34.105Z,15.68
2022-08-05T23:20:10.387Z,6.75
2022-08-05T23:22:48.358Z,6.93
2022-08-05T23:25:54.686Z,4.97
2022-08-05T23:28:06.931Z,6.55
2022-08-05T23:30:40.551Z,7.20
2022-08-05T23:33:22.435Z,11.80
2022-08-05T23:35:55.969Z,4.38
2022-08-05T23:38:24.210Z,16.20
2022-08-05T23:40:51.048Z,9.50
2022-08-05T23:43:25.321Z,11.07
2022-08-05T23:46:20.289Z,9.68
2022-08-05T23:49:01.114Z,9.25
2022-08-05T23:51:52.323Z,6.95
2022-08-05T23:54:30.471Z,9.57
2022-08-05T23:57:03.253Z,12.75
